Time;durP1;ratioP1;P1;durP2;ratioP2;P2;SDS_P1;SDS_P2;PMS_P1;PMS_P2;Temp;Humidity;BMP_temperature;BMP_pressure;BME280_temperature;BME280_humidity;BME280_pressure;Samples;Min_cycle;Max_cycle;Signal;HPM_P1;HPM_P2
2023/01/03 00:01:33;;;;;;;0.00;0.00;;;;;;;8.54;92.65;99809.91;4961301;28;20218;-62
2023/01/03 00:04:01;;;;;;;0.00;0.00;;;;;;;8.54;93.46;99813.38;4961259;28;20243;-62
2023/01/03 00:06:30;;;;;;;0.00;0.00;;;;;;;8.52;94.33;99811.78;4963273;28;20217;-62
2023/01/03 00:08:58;;;;;;;0.00;0.00;;;;;;;8.43;95.34;99810.66;4959098;28;20884;-62
2023/01/03 00:14:10;;;;;;;0.00;0.00;;;;;;;8.18;96.67;99808.94;4973229;28;20582;-62
2023/01/03 00:16:36;;;;;;;0.00;0.00;;;;;;;8.06;97.13;99805.38;4964315;28;20219;-62
2023/01/03 00:19:06;;;;;;;0.00;0.00;;;;;;;7.96;98.61;99800.00;4960599;28;20241;-62
2023/01/03 00:21:33;;;;;;;0.00;0.00;;;;;;;7.91;98.62;99802.94;4962437;28;20282;-62
2023/01/03 00:24:00;;;;;;;0.00;0.00;;;;;;;7.82;98.72;99804.38;4959028;28;20251;-62
2023/01/03 00:26:26;;;;;;;0.00;0.00;;;;;;;7.75;99.53;99803.13;4963855;28;20882;-62
2023/01/03 00:28:53;;;;;;;0.00;0.00;;;;;;;7.71;99.72;99806.84;4958327;28;20311;-62
2023/01/03 00:31:21;;;;;;;0.00;0.00;;;;;;;7.63;100.00;99803.94;4963411;28;20227;-62
2023/01/03 00:33:47;;;;;;;0.00;0.00;;;;;;;7.59;100.00;99802.47;4957565;28;20247;-62
2023/01/03 00:36:14;;;;;;;0.00;0.00;;;;;;;7.51;100.00;99803.81;4962657;28;20692;-62
2023/01/03 00:38:40;;;;;;;0.00;0.00;;;;;;;7.53;100.00;99807.16;4958185;28;20247;-62
2023/01/03 00:41:09;;;;;;;0.00;0.00;;;;;;;7.51;100.00;99800.41;4961909;28;20232;-63
2023/01/03 00:43:36;;;;;;;0.00;0.00;;;;;;;7.45;100.00;99791.25;4963590;28;20315;-62
2023/01/03 00:46:04;;;;;;;0.00;0.00;;;;;;;7.48;100.00;99787.63;4958824;28;20219;-61
2023/01/03 00:48:33;;;;;;;0.00;0.00;;;;;;;7.44;100.00;99796.56;4961687;28;20290;-62
2023/01/03 00:51:06;;;;;;;0.00;0.00;;;;;;;7.45;100.00;99793.03;4959440;28;20271;-62
2023/01/03 00:53:32;;;;;;;0.00;0.00;;;;;;;7.46;100.00;99789.50;4963177;28;20227;-62
2023/01/03 00:56:03;;;;;;;0.00;0.00;;;;;;;7.47;100.00;99794.56;4960219;28;21107;-62
2023/01/03 00:58:30;;;;;;;0.00;0.00;;;;;;;7.50;100.00;99796.97;4963744;28;20235;-62
2023/01/03 01:00:57;;;;;;;0.00;0.00;;;;;;;7.50;100.00;99801.34;4958847;28;20236;-62
2023/01/03 01:03:23;;;;;;;0.00;0.00;;;;;;;7.50;100.00;99801.34;4960966;28;20227;-62
2023/01/03 01:05:51;;;;;;;0.00;0.00;;;;;;;7.50;100.00;99803.94;4958117;28;20224;-62
2023/01/03 01:08:18;;;;;;;0.00;0.00;;;;;;;7.50;100.00;99803.94;4961336;28;20231;-62
2023/01/03 01:11:00;;;;;;;0.00;0.00;;;;;;;7.50;100.00;99802.16;4958031;28;20250;-62
2023/01/03 01:13:27;;;;;;;0.00;0.00;;;;;;;7.40;100.00;99803.72;4961741;28;20347;-62
2023/01/03 01:15:54;;;;;;;0.00;0.00;;;;;;;7.32;100.00;99808.59;4961394;28;20246;-62
2023/01/03 01:18:21;;;;;;;0.00;0.00;;;;;;;7.30;100.00;99823.44;4968258;28;20231;-62
2023/01/03 01:20:47;;;;;;;0.00;0.00;;;;;;;7.29;100.00;99820.00;4962244;28;20227;-61
2023/01/03 01:23:15;;;;;;;0.00;0.00;;;;;;;7.32;100.00;99825.00;4966919;28;20249;-62
2023/01/03 01:25:42;;;;;;;0.00;0.00;;;;;;;7.37;100.00;99828.13;4961360;28;20247;-62
2023/01/03 01:28:09;;;;;;;0.00;0.00;;;;;;;7.37;100.00;99829.91;4966687;28;20230;-61
2023/01/03 01:30:36;;;;;;;0.00;0.00;;;;;;;7.42;100.00;99822.63;4967214;28;20238;-62
2023/01/03 01:33:03;;;;;;;0.00;0.00;;;;;;;7.34;100.00;99825.72;4962791;28;20227;-62
2023/01/03 01:35:30;;;;;;;0.00;0.00;;;;;;;7.28;100.00;99822.72;4965940;28;20219;-62
2023/01/03 01:37:57;;;;;;;0.00;0.00;;;;;;;7.22;100.00;99823.94;4993837;28;20240;-62
2023/01/03 01:40:26;;;;;;;0.00;0.00;;;;;;;7.22;100.00;99829.97;4965024;28;20246;-62
2023/01/03 01:45:38;;;;;;;0.00;0.00;;;;;;;7.28;100.00;99826.13;4966391;28;20227;-62
2023/01/03 01:48:10;;;;;;;0.00;0.00;;;;;;;7.26;100.00;99824.56;4963621;28;20220;-62
2023/01/03 01:50:40;;;;;;;0.00;0.00;;;;;;;7.17;100.00;99833.78;4966118;28;20712;-62
2023/01/03 01:53:10;;;;;;;0.00;0.00;;;;;;;7.10;100.00;99830.75;4962922;28;20231;-62
2023/01/03 01:55:41;;;;;;;0.00;0.00;;;;;;;7.02;100.00;99830.41;4966131;28;20281;-62
2023/01/03 01:58:11;;;;;;;0.00;0.00;;;;;;;6.95;100.00;99835.16;4964154;28;20243;-62
2023/01/03 02:00:39;;;;;;;0.00;0.00;;;;;;;6.90;100.00;99842.41;4966104;28;20685;-62
2023/01/03 02:03:06;;;;;;;0.00;0.00;;;;;;;6.82;100.00;99831.69;4963774;28;20247;-62
2023/01/03 02:06:00;;;;;;;0.00;0.00;;;;;;;6.65;100.00;99838.78;4967854;28;20234;-62
2023/01/03 02:08:27;;;;;;;0.00;0.00;;;;;;;6.55;100.00;99832.47;4962223;28;20222;-62
2023/01/03 02:11:13;;;;;;;0.00;0.00;;;;;;;6.41;100.00;99828.13;4961802;28;20227;-60
2023/01/03 02:13:49;;;;;;;0.00;0.00;;;;;;;6.31;100.00;99828.72;4961994;28;20242;-62
2023/01/03 02:16:27;;;;;;;0.00;0.00;;;;;;;6.32;100.00;99822.59;4965287;28;20230;-62
2023/01/03 02:19:04;;;;;;;0.00;0.00;;;;;;;6.24;100.00;99822.25;4964748;28;20709;-61
2023/01/03 02:22:04;;;;;;;0.00;0.00;;;;;;;6.16;100.00;99820.09;4967452;28;20754;-62
2023/01/03 02:24:56;;;;;;;0.00;0.00;;;;;;;6.10;100.00;99824.84;4962173;28;20258;-62
2023/01/03 02:27:55;;;;;;;0.03;0.03;;;;;;;6.07;100.00;99827.59;4963216;28;20234;-62
2023/01/03 02:30:37;;;;;;;0.00;0.00;;;;;;;6.04;100.00;99823.44;4956413;28;20479;-61
2023/01/03 02:33:59;;;;;;;0.00;0.00;;;;;;;6.00;100.00;99827.97;4962618;28;20227;-62
2023/01/03 02:36:35;;;;;;;0.00;0.00;;;;;;;6.01;100.00;99832.22;4962447;28;20223;-62
2023/01/03 02:39:08;;;;;;;0.00;0.00;;;;;;;5.99;100.00;99826.28;4960134;28;20242;-62
2023/01/03 02:41:44;;;;;;;0.00;0.00;;;;;;;5.96;100.00;99828.19;4964023;28;20744;-62
2023/01/03 02:44:18;;;;;;;0.00;0.00;;;;;;;5.99;100.00;99833.19;4962218;28;20254;-62
2023/01/03 02:46:51;;;;;;;0.00;0.00;;;;;;;6.04;100.00;99826.03;4963703;28;20300;-62
2023/01/03 02:49:24;;;;;;;0.00;0.00;;;;;;;6.07;100.00;99825.03;4984162;28;20233;-62
2023/01/03 02:51:54;;;;;;;0.00;0.00;;;;;;;6.07;100.00;99823.25;4965001;28;20246;-62
2023/01/03 02:54:27;;;;;;;0.00;0.00;;;;;;;6.06;100.00;99824.16;4967706;28;20702;-61
2023/01/03 02:56:59;;;;;;;0.00;0.00;;;;;;;6.05;100.00;99823.34;4965851;28;20275;-61
2023/01/03 02:59:33;;;;;;;0.00;0.00;;;;;;;6.09;100.00;99815.38;4967499;28;20290;-61
2023/01/03 03:02:04;;;;;;;0.00;0.00;;;;;;;6.03;100.00;99820.00;4966690;28;20298;-61
2023/01/03 03:04:31;;;;;;;0.00;0.00;;;;;;;6.02;100.00;99820.94;4973157;28;20242;-61
2023/01/03 03:07:01;;;;;;;0.00;0.00;;;;;;;6.08;100.00;99829.28;4967719;28;20750;-61
2023/01/03 03:09:29;;;;;;;0.00;0.00;;;;;;;6.14;100.00;99814.16;4970194;28;20235;-61
2023/01/03 03:14:48;;;;;;;0.00;0.00;;;;;;;6.17;100.00;99816.56;4966822;28;20356;-61
2023/01/03 03:17:22;;;;;;;0.00;0.00;;;;;;;6.20;100.00;99819.00;4968453;28;20234;-61
2023/01/03 03:25:33;;;;;;;0.00;0.00;;;;;;;6.31;100.00;99827.88;4966065;28;20243;-61
2023/01/03 03:30:55;;;;;;;0.00;0.00;;;;;;;6.36;100.00;99818.06;4949002;28;20278;-61
2023/01/03 03:33:26;;;;;;;0.00;0.00;;;;;;;6.37;100.00;99824.06;4971171;28;20236;-61
2023/01/03 03:35:57;;;;;;;0.00;0.00;;;;;;;6.30;100.00;99816.69;4964359;28;20323;-62
2023/01/03 03:38:31;;;;;;;0.00;0.00;;;;;;;6.20;100.00;99820.75;4970494;28;20238;-61
2023/01/03 03:46:48;;;;;;;0.00;0.00;;;;;;;6.04;100.00;99821.69;4965329;28;20227;-61
2023/01/03 03:49:39;;;;;;;0.00;0.00;;;;;;;5.97;100.00;99825.53;4969045;28;20240;-61
2023/01/03 03:52:10;;;;;;;0.00;0.00;;;;;;;5.80;100.00;99823.94;4966221;28;20251;-61
2023/01/03 03:54:39;;;;;;;0.00;0.00;;;;;;;5.73;100.00;99823.47;4968935;28;20235;-61
2023/01/03 03:57:12;;;;;;;0.00;0.00;;;;;;;5.67;100.00;99830.78;4967990;28;20712;-62
2023/01/03 03:59:43;;;;;;;0.00;0.00;;;;;;;5.58;100.00;99826.94;4967836;28;20674;-62
2023/01/03 04:02:12;;;;;;;0.00;0.00;;;;;;;5.51;100.00;99826.47;4963380;28;20765;-62
2023/01/03 04:04:44;;;;;;;0.00;0.00;;;;;;;5.46;100.00;99839.69;4966141;28;20260;-62
2023/01/03 04:07:11;;;;;;;0.00;0.00;;;;;;;5.39;100.00;99843.53;4967640;28;20308;-62
2023/01/03 04:09:38;;;;;;;0.00;0.00;;;;;;;5.34;100.00;99839.56;4968746;28;20226;-62
2023/01/03 04:12:05;;;;;;;0.00;0.00;;;;;;;5.42;100.00;99839.97;4965447;28;20238;-62
2023/01/03 04:14:32;;;;;;;0.00;0.00;;;;;;;5.35;100.00;99836.88;4968301;28;20238;-62
2023/01/03 04:16:58;;;;;;;0.00;0.00;;;;;;;5.32;100.00;99842.22;4965679;28;20222;-62
2023/01/03 04:19:25;;;;;;;0.00;0.00;;;;;;;5.21;100.00;99845.44;4967579;28;20270;-61
2023/01/03 04:21:52;;;;;;;0.00;0.00;;;;;;;5.15;100.00;99845.78;4964040;28;20710;-61
2023/01/03 04:24:21;;;;;;;0.00;0.00;;;;;;;5.09;100.00;99852.13;4968366;28;20220;-61
2023/01/03 04:26:47;;;;;;;0.00;0.00;;;;;;;5.05;100.00;99848.03;4964825;28;20270;-61
2023/01/03 04:29:14;;;;;;;0.00;0.00;;;;;;;4.97;100.00;99847.63;4967650;28;20240;-62
2023/01/03 04:31:41;;;;;;;0.00;0.00;;;;;;;4.96;100.00;99845.97;5224340;23;20233;-62
2023/01/03 04:34:07;;;;;;;0.00;0.00;;;;;;;5.01;100.00;99849.13;4985672;28;20237;-60
2023/01/03 04:36:34;;;;;;;0.00;0.00;;;;;;;4.98;100.00;99846.72;4985458;28;20289;-59
2023/01/03 04:39:02;;;;;;;0.00;0.00;;;;;;;4.96;100.00;99843.38;4984026;28;20717;-59
2023/01/03 04:41:28;;;;;;;0.00;0.00;;;;;;;4.93;100.00;99851.31;4986473;28;20300;-63
2023/01/03 04:44:00;;;;;;;0.00;0.00;;;;;;;4.92;100.00;99837.53;4983147;28;20652;-60
2023/01/03 04:46:28;;;;;;;0.00;0.00;;;;;;;4.89;100.00;99845.44;4986842;28;20562;-58
2023/01/03 04:48:54;;;;;;;0.00;0.00;;;;;;;4.85;100.00;99846.53;4984025;28;20838;-59
2023/01/03 04:51:21;;;;;;;0.00;0.00;;;;;;;4.84;100.00;99853.47;4986530;28;20291;-59
2023/01/03 04:53:48;;;;;;;0.00;0.00;;;;;;;4.86;100.00;99837.84;4983359;28;20242;-59
2023/01/03 04:56:15;;;;;;;0.00;0.00;;;;;;;4.81;100.00;99847.63;4983724;28;20233;-59
2023/01/03 04:58:42;;;;;;;0.00;0.00;;;;;;;4.78;100.00;99846.06;4981856;28;20619;-59
2023/01/03 05:01:09;;;;;;;0.00;0.00;;;;;;;4.79;100.00;99850.31;4980672;28;20245;-59
2023/01/03 05:03:37;;;;;;;0.00;0.00;;;;;;;4.78;100.00;99848.63;4987031;28;20226;-60
2023/01/03 05:06:07;;;;;;;0.00;0.00;;;;;;;4.78;100.00;99856.41;4982472;28;20233;-59
2023/01/03 05:08:34;;;;;;;0.00;0.00;;;;;;;4.77;100.00;99854.72;4985878;28;20614;-60
2023/01/03 05:11:00;;;;;;;0.00;0.00;;;;;;;4.73;100.00;99861.84;4981756;28;20238;-60
2023/01/03 05:13:28;;;;;;;0.00;0.00;;;;;;;4.70;100.00;99861.16;4985056;28;20280;-60
2023/01/03 05:15:55;;;;;;;0.00;0.00;;;;;;;4.68;100.00;99848.31;4981525;28;20234;-59
2023/01/03 05:18:21;;;;;;;0.00;0.00;;;;;;;4.67;100.00;99846.66;4986190;28;20217;-60
2023/01/03 05:26:18;;;;;;;0.00;0.00;;;;;;;4.63;100.00;99862.41;4983527;28;20300;-60
2023/01/03 05:28:50;;;;;;;0.00;0.00;;;;;;;4.57;100.00;99861.81;4981918;28;20276;-59
2023/01/03 05:31:16;;;;;;;0.00;0.00;;;;;;;4.53;100.00;99857.72;4984104;28;20223;-60
2023/01/03 05:33:43;;;;;;;0.00;0.00;;;;;;;4.55;100.00;99863.63;4982563;28;20226;-60
2023/01/03 05:36:10;;;;;;;0.00;0.00;;;;;;;4.51;100.00;99867.31;4985822;28;20628;-60
2023/01/03 05:38:38;;;;;;;0.00;0.00;;;;;;;4.51;100.00;99874.25;4985271;28;20284;-60
2023/01/03 05:41:05;;;;;;;0.00;0.00;;;;;;;4.53;100.00;99877.56;4982412;28;20300;-59
2023/01/03 05:43:32;;;;;;;0.00;0.00;;;;;;;4.57;100.00;99877.31;4985232;28;20225;-60
2023/01/03 05:45:59;;;;;;;0.00;0.00;;;;;;;4.53;100.00;99877.56;4982768;28;20250;-60
2023/01/03 05:48:26;;;;;;;0.00;0.00;;;;;;;4.47;100.00;99883.88;4971458;28;20284;-60
2023/01/03 05:50:56;;;;;;;0.00;0.00;;;;;;;4.45;100.00;99877.97;4981903;28;20234;-60
2023/01/03 05:53:23;;;;;;;0.00;0.00;;;;;;;4.41;100.00;99879.03;4985108;28;20255;-62
2023/01/03 05:55:50;;;;;;;0.00;0.00;;;;;;;4.35;100.00;99879.34;4982611;28;20235;-60
2023/01/03 05:58:16;;;;;;;0.00;0.00;;;;;;;4.38;100.00;99876.63;4984779;28;20317;-60
2023/01/03 06:00:43;;;;;;;0.00;0.00;;;;;;;4.40;100.00;99877.38;4981958;28;20249;-60
2023/01/03 06:03:11;;;;;;;0.00;0.00;;;;;;;4.39;100.00;99886.03;4984533;28;20226;-60
2023/01/03 06:05:37;;;;;;;0.00;0.00;;;;;;;4.32;100.00;99892.44;4984361;28;20289;-60
2023/01/03 06:08:04;;;;;;;0.00;0.00;;;;;;;4.35;100.00;99884.53;4982623;28;20649;-60
2023/01/03 06:10:30;;;;;;;0.00;0.00;;;;;;;4.38;100.00;99882.63;4985313;28;20296;-59
2023/01/03 06:12:57;;;;;;;0.00;0.00;;;;;;;4.37;100.00;99887.88;4982410;28;20319;-60
2023/01/03 06:15:23;;;;;;;0.00;0.00;;;;;;;4.45;100.00;99884.91;4985213;28;20642;-60
2023/01/03 06:17:57;;;;;;;0.00;0.00;;;;;;;4.47;100.00;99893.41;4982714;28;20596;-60
2023/01/03 06:20:26;;;;;;;0.00;0.00;;;;;;;4.41;100.00;99898.00;4984805;28;20237;-60
2023/01/03 06:22:54;;;;;;;0.00;0.00;;;;;;;4.37;100.00;99906.81;4981889;28;20245;-60
2023/01/03 06:25:21;;;;;;;0.00;0.00;;;;;;;4.39;100.00;99899.81;4985243;28;20242;-60
2023/01/03 06:27:48;;;;;;;0.00;0.00;;;;;;;4.42;100.00;99903.97;4982660;28;20245;-60
2023/01/03 06:30:15;;;;;;;0.00;0.00;;;;;;;4.46;100.00;99910.66;4985002;28;20302;-60
2023/01/03 06:32:42;;;;;;;0.00;0.00;;;;;;;4.47;100.00;99908.94;4982266;28;20602;-60
2023/01/03 06:35:09;;;;;;;0.00;0.00;;;;;;;4.46;100.00;99900.31;4984701;28;20240;-60
2023/01/03 06:37:37;;;;;;;0.00;0.00;;;;;;;4.48;100.00;99897.66;4985297;28;20296;-60
2023/01/03 06:40:05;;;;;;;0.00;0.00;;;;;;;4.41;100.00;99902.31;4985343;28;20238;-60
2023/01/03 06:42:42;;;;;;;0.00;0.00;;;;;;;4.39;100.00;99904.13;4985083;28;20291;-60
2023/01/03 06:53:33;;;;;;;0.00;0.00;;;;;;;4.41;100.00;99895.41;4984996;28;20234;-60
2023/01/03 06:56:00;;;;;;;0.00;0.00;;;;;;;4.46;100.00;99904.66;4982490;28;20238;-60
2023/01/03 06:58:27;;;;;;;0.00;0.00;;;;;;;4.41;100.00;99904.91;4984296;28;20245;-60
2023/01/03 07:00:54;;;;;;;0.00;0.00;;;;;;;4.40;100.00;99910.97;4981112;28;20323;-61
2023/01/03 07:03:21;;;;;;;0.00;0.00;;;;;;;4.36;100.00;99909.47;4984858;28;20221;-60
2023/01/03 07:05:48;;;;;;;0.00;0.00;;;;;;;4.35;100.00;99905.22;4981348;28;20308;-60
2023/01/03 07:08:15;;;;;;;0.00;0.00;;;;;;;4.30;100.00;99913.22;4984690;28;20237;-60
2023/01/03 07:10:43;;;;;;;0.00;0.00;;;;;;;4.31;100.00;99912.31;4981662;28;21174;-60
2023/01/03 07:15:53;;;;;;;0.00;0.00;;;;;;;4.21;100.00;99916.28;4981498;28;20218;-60
2023/01/03 07:18:20;;;;;;;0.00;0.00;;;;;;;4.23;100.00;99911.84;4984393;28;20240;-60
2023/01/03 07:20:47;;;;;;;0.00;0.00;;;;;;;4.22;100.00;99917.94;4981080;28;20308;-60
2023/01/03 07:23:13;;;;;;;0.00;0.00;;;;;;;4.28;100.00;99915.88;4984572;28;20298;-60
2023/01/03 07:25:41;;;;;;;0.00;0.00;;;;;;;4.31;100.00;99926.97;4982035;28;20730;-60
2023/01/03 07:28:11;;;;;;;0.00;0.00;;;;;;;4.28;100.00;99922.81;4983616;28;20637;-60
2023/01/03 07:30:39;;;;;;;0.00;0.00;;;;;;;4.27;100.00;99927.13;4983962;28;20630;-60
2023/01/03 07:33:06;;;;;;;0.00;0.00;;;;;;;4.28;100.00;99923.63;4981084;28;20244;-60
2023/01/03 07:35:33;;;;;;;0.00;0.00;;;;;;;4.31;100.00;99930.41;4987840;28;20237;-61
2023/01/03 07:37:59;;;;;;;0.00;0.00;;;;;;;4.35;100.00;99926.75;4983920;28;20961;-61
2023/01/03 07:40:26;;;;;;;0.00;0.00;;;;;;;4.34;100.00;99927.66;4987424;28;20768;-61
2023/01/03 07:45:41;;;;;;;0.00;0.00;;;;;;;4.45;100.00;99927.09;4986366;28;20229;-62
2023/01/03 07:48:07;;;;;;;0.00;0.00;;;;;;;4.43;100.00;99923.75;4984930;28;20316;-61
2023/01/03 07:50:34;;;;;;;0.00;0.00;;;;;;;4.52;100.00;99933.63;4988036;28;20251;-61
2023/01/03 07:53:01;;;;;;;0.00;0.00;;;;;;;4.62;100.00;99928.81;4984592;28;20245;-61
2023/01/03 07:55:28;;;;;;;0.00;0.00;;;;;;;4.68;100.00;99936.25;4987808;28;20238;-61
2023/01/03 07:57:54;;;;;;;0.00;0.00;;;;;;;4.72;100.00;99942.94;4984834;28;20239;-61
2023/01/03 08:00:21;;;;;;;0.00;0.00;;;;;;;4.76;100.00;99937.59;4987565;28;20245;-61
2023/01/03 08:02:52;;;;;;;0.00;0.00;;;;;;;4.78;100.00;99939.19;4984668;28;20248;-61
2023/01/03 08:05:18;;;;;;;0.00;0.00;;;;;;;4.81;100.00;99933.00;4986907;28;20232;-60
2023/01/03 08:07:47;;;;;;;0.00;0.00;;;;;;;4.79;100.00;99942.59;4984745;28;20292;-60
2023/01/03 08:15:43;;;;;;;0.00;0.00;;;;;;;4.77;100.00;99950.44;4984344;28;20239;-61
2023/01/03 08:18:11;;;;;;;0.00;0.00;;;;;;;4.82;100.00;99952.78;4987355;28;20904;-59
2023/01/03 08:20:38;;;;;;;0.00;0.00;;;;;;;4.84;100.00;99956.13;4986728;28;20305;-60
2023/01/03 08:23:04;;;;;;;0.00;0.00;;;;;;;4.88;100.00;99960.22;4984484;28;20234;-60
2023/01/03 08:25:31;;;;;;;0.00;0.00;;;;;;;4.93;100.00;99963.41;4987256;28;21080;-61
2023/01/03 08:27:58;;;;;;;0.00;0.00;;;;;;;4.99;100.00;99964.84;4983000;28;20233;-60
2023/01/03 08:30:25;;;;;;;0.00;0.00;;;;;;;4.98;100.00;99961.41;4987075;28;20241;-60
2023/01/03 08:32:53;;;;;;;0.00;0.00;;;;;;;5.03;100.00;99966.34;4984062;28;20232;-60
2023/01/03 08:35:24;;;;;;;0.00;0.00;;;;;;;5.06;100.00;99970.50;4986930;28;20354;-60
2023/01/03 08:37:52;;;;;;;0.00;0.00;;;;;;;5.09;100.00;99973.78;4984039;28;20235;-60
2023/01/03 08:40:19;;;;;;;0.00;0.00;;;;;;;5.09;100.00;99981.53;4986834;28;20237;-60
2023/01/03 08:42:47;;;;;;;0.00;0.00;;;;;;;5.12;100.00;99990.88;4983724;28;20292;-60
2023/01/03 08:45:16;;;;;;;0.00;0.00;;;;;;;5.16;100.00;99989.81;4986185;28;20230;-60
2023/01/03 08:47:44;;;;;;;0.00;0.00;;;;;;;5.19;100.00;99989.63;4984023;28;20242;-60
2023/01/03 08:50:11;;;;;;;0.00;0.00;;;;;;;5.19;100.00;99992.22;4987111;28;20242;-61
2023/01/03 08:52:39;;;;;;;0.00;0.00;;;;;;;5.19;100.00;99986.22;4987189;28;20752;-61
2023/01/03 08:55:07;;;;;;;0.00;0.00;;;;;;;5.20;100.00;99983.53;4981627;28;20244;-60
2023/01/03 08:57:33;;;;;;;0.00;0.00;;;;;;;5.31;100.00;99988.97;4984988;28;20330;-60
2023/01/03 09:00:00;;;;;;;0.00;0.00;;;;;;;5.36;100.00;99993.06;4983095;28;20238;-60
2023/01/03 09:02:26;;;;;;;0.00;0.00;;;;;;;5.36;100.00;99990.47;4986673;28;20246;-59
2023/01/03 09:04:53;;;;;;;0.00;0.00;;;;;;;5.36;100.00;99993.06;4982087;28;20238;-60
2023/01/03 09:07:19;;;;;;;0.00;0.00;;;;;;;5.37;100.00;100000.75;4986232;28;20246;-60
2023/01/03 09:09:47;;;;;;;0.00;0.00;;;;;;;5.39;100.00;100003.25;4982930;28;20226;-60
2023/01/03 09:12:14;;;;;;;0.00;0.00;;;;;;;5.39;100.00;100003.25;4986291;28;20240;-60
2023/01/03 09:14:40;;;;;;;0.00;0.00;;;;;;;5.35;100.00;100005.16;4983534;28;20233;-60
2023/01/03 09:17:07;;;;;;;0.00;0.00;;;;;;;5.30;100.00;100005.44;4985898;28;20250;-60
2023/01/03 09:19:34;;;;;;;0.00;0.00;;;;;;;5.28;100.00;100009.03;4986268;28;20784;-60
2023/01/03 09:22:00;;;;;;;0.00;0.00;;;;;;;5.33;100.00;100014.78;4983499;28;20598;-61
2023/01/03 09:24:27;;;;;;;0.00;0.00;;;;;;;5.32;100.00;100011.38;4985262;28;20796;-60
2023/01/03 09:26:55;;;;;;;0.00;0.00;;;;;;;5.25;100.00;100020.38;4983424;28;20246;-60
2023/01/03 09:29:21;;;;;;;0.00;0.00;;;;;;;5.26;100.00;100023.81;4986258;28;20229;-60
2023/01/03 09:31:48;;;;;;;0.00;0.00;;;;;;;5.25;100.00;100027.31;4983602;28;20241;-60
2023/01/03 09:34:14;;;;;;;0.00;0.00;;;;;;;5.30;100.00;100025.31;4985156;28;20297;-60
2023/01/03 09:36:41;;;;;;;0.00;0.00;;;;;;;5.34;100.00;100023.38;4983032;28;20225;-60
2023/01/03 09:39:07;;;;;;;0.00;0.00;;;;;;;5.37;100.00;100031.00;4985452;28;20235;-60
2023/01/03 09:41:34;;;;;;;0.00;0.00;;;;;;;5.38;100.00;100025.72;4984116;28;20941;-60
2023/01/03 09:44:05;;;;;;;0.00;0.00;;;;;;;5.38;100.00;100032.66;4982724;28;20241;-60
2023/01/03 09:46:34;;;;;;;0.00;0.00;;;;;;;5.37;100.00;100031.00;4986090;28;20594;-60
2023/01/03 09:49:02;;;;;;;0.00;0.00;;;;;;;5.39;100.00;100027.38;4982783;28;20333;-60
2023/01/03 10:05:55;;;;;;;0.00;0.00;;;;;;;6.02;100.00;100022.28;4956090;28;20241;-59
2023/01/03 10:08:36;;;;;;;0.00;0.00;;;;;;;6.13;100.00;100022.50;4983960;28;20633;-59
2023/01/03 10:11:07;;;;;;;0.00;0.00;;;;;;;6.25;100.00;100025.31;4981302;28;20239;-59
2023/01/03 10:13:48;;;;;;;0.00;0.00;;;;;;;6.37;100.00;100021.16;4984376;28;20637;-60
2023/01/03 10:16:28;;;;;;;0.00;0.00;;;;;;;6.46;100.00;100015.44;4981879;28;20610;-59
2023/01/03 10:19:07;;;;;;;0.00;0.00;;;;;;;6.57;100.00;100022.59;4981410;28;20233;-59
2023/01/03 10:21:44;;;;;;;0.00;0.00;;;;;;;6.63;100.00;100020.47;4984683;28;20225;-59
2023/01/03 10:24:18;;;;;;;0.00;0.00;;;;;;;6.72;100.00;100026.88;4981215;28;20225;-59
2023/01/03 10:26:44;;;;;;;0.00;0.00;;;;;;;6.83;100.00;100025.41;4981486;28;20714;-59
2023/01/03 10:29:17;;;;;;;0.00;0.00;;;;;;;6.89;100.00;100023.28;4983836;28;20706;-60
2023/01/03 10:32:10;;;;;;;0.00;0.00;;;;;;;7.02;100.00;100025.13;4980742;28;20563;-60
2023/01/03 10:34:37;;;;;;;0.00;0.00;;;;;;;7.12;100.00;100018.44;4984596;28;20752;-60
2023/01/03 10:37:16;;;;;;;0.00;0.00;;;;;;;7.19;100.00;100014.56;4981677;28;20317;-59
2023/01/03 10:39:43;;;;;;;0.03;0.03;;;;;;;7.28;100.00;100015.72;4980388;28;20237;-59
2023/01/03 10:42:18;;;;;;;0.00;0.00;;;;;;;7.35;100.00;100006.63;4984730;28;20832;-60
2023/01/03 10:44:59;;;;;;;0.00;0.00;;;;;;;7.43;100.00;100008.72;4996350;28;20609;-60
2023/01/03 10:47:27;;;;;;;0.00;0.00;;;;;;;7.51;100.00;100009.09;4983943;28;20296;-59
2023/01/03 10:49:59;;;;;;;0.00;0.00;;;;;;;7.57;100.00;100007.88;4981538;28;20714;-61
2023/01/03 10:52:31;;;;;;;0.00;0.00;;;;;;;7.63;100.00;100007.50;4984158;28;20233;-61
2023/01/03 10:55:01;;;;;;;0.00;0.00;;;;;;;7.71;100.00;100009.59;4981282;28;20289;-60
2023/01/03 10:57:39;;;;;;;0.00;0.00;;;;;;;7.82;100.00;100008.91;4984574;28;20306;-60
2023/01/03 11:00:27;;;;;;;0.00;0.00;;;;;;;7.87;100.00;100008.59;4981719;28;20222;-61
2023/01/03 11:03:02;;;;;;;0.00;0.00;;;;;;;7.98;99.66;100004.38;4981272;28;20721;-61
2023/01/03 11:05:29;;;;;;;0.00;0.00;;;;;;;8.04;98.54;100005.75;4983592;28;20256;-60
2023/01/03 11:07:58;;;;;;;0.00;0.00;;;;;;;8.10;99.08;100010.53;4980331;28;20645;-60
2023/01/03 11:10:32;;;;;;;0.00;0.00;;;;;;;8.11;98.84;100007.00;4986321;28;20285;-60
2023/01/03 11:12:59;;;;;;;0.00;0.00;;;;;;;8.15;99.30;100005.03;4985029;28;20285;-61
2023/01/03 11:15:38;;;;;;;0.00;0.00;;;;;;;8.16;98.85;100003.28;4986917;28;20297;-61
2023/01/03 11:18:16;;;;;;;0.00;0.00;;;;;;;8.23;97.51;100000.16;4985388;28;20779;-61
2023/01/03 11:20:49;;;;;;;0.00;0.00;;;;;;;8.32;96.37;100003.94;4984991;28;20235;-61
2023/01/03 11:23:20;;;;;;;0.00;0.00;;;;;;;8.39;95.66;100005.19;4987059;28;20234;-61
2023/01/03 11:26:00;;;;;;;0.00;0.00;;;;;;;8.50;94.70;100001.88;4983698;28;20242;-61
2023/01/03 11:28:56;;;;;;;0.00;0.00;;;;;;;8.51;95.09;100000.94;4987159;28;20227;-60
2023/01/03 11:31:37;;;;;;;0.00;0.00;;;;;;;8.56;94.96;99998.88;4985019;28;20243;-60
2023/01/03 11:34:23;;;;;;;0.00;0.00;;;;;;;8.54;94.72;99995.53;4984509;28;20246;-61
2023/01/03 11:36:55;;;;;;;0.00;0.00;;;;;;;8.53;95.32;99985.22;4984205;28;20237;-61
2023/01/03 11:39:40;;;;;;;0.00;0.00;;;;;;;8.53;96.33;99987.81;4987451;28;20325;-61
2023/01/03 11:42:24;;;;;;;0.00;0.00;;;;;;;8.51;96.47;99987.09;4984705;28;20243;-60
2023/01/03 11:45:05;;;;;;;0.00;0.00;;;;;;;8.54;96.68;99981.69;4983745;28;20215;-60
2023/01/03 11:47:41;;;;;;;0.00;0.00;;;;;;;8.55;96.36;99983.34;4987086;28;20638;-60
2023/01/03 11:50:23;;;;;;;0.00;0.00;;;;;;;8.58;95.65;99983.13;4984368;28;21093;-60
2023/01/03 11:52:56;;;;;;;0.00;0.00;;;;;;;8.59;95.52;99986.59;4983696;28;20586;-61
2023/01/03 11:55:51;;;;;;;0.00;0.00;;;;;;;8.68;99.20;99976.38;4986762;28;20231;-56
2023/01/03 11:58:39;;;;;;;0.00;0.00;;;;;;;8.77;100.00;99985.31;4983343;28;20627;-57
2023/01/03 12:01:13;;;;;;;0.00;0.00;;;;;;;8.81;98.40;99983.34;4980393;28;20247;-52
2023/01/03 12:03:58;;;;;;;0.00;0.00;;;;;;;8.84;95.81;99980.53;4986197;28;20323;-57
2023/01/03 12:06:32;;;;;;;0.00;0.00;;;;;;;8.84;94.76;99983.13;4984241;28;20299;-60
2023/01/03 12:09:11;;;;;;;0.00;0.00;;;;;;;8.84;93.30;99983.13;4983481;28;20227;-60
2023/01/03 12:12:22;;;;;;;0.00;0.00;;;;;;;8.80;92.50;99984.28;4985940;28;20241;-57
2023/01/03 12:14:52;;;;;;;0.00;0.00;;;;;;;8.78;91.97;99988.75;4961395;28;20247;-61
2023/01/03 12:17:25;;;;;;;0.00;0.00;;;;;;;8.77;93.05;99987.94;4983852;28;20302;-62
2023/01/03 12:19:57;;;;;;;0.00;0.00;;;;;;;8.75;90.29;99989.81;4981664;28;20243;-62
2023/01/03 12:22:33;;;;;;;0.00;0.00;;;;;;;8.73;90.23;99977.81;4986423;28;20235;-59
2023/01/03 12:25:06;;;;;;;0.00;0.00;;;;;;;8.77;89.32;99980.13;4983406;28;20269;-61
2023/01/03 12:27:37;;;;;;;0.00;0.00;;;;;;;8.78;89.77;99973.97;4987052;28;20699;-59
2023/01/03 12:30:13;;;;;;;0.00;0.00;;;;;;;8.84;89.45;99973.56;4984155;28;20707;-62
2023/01/03 12:32:46;;;;;;;0.00;0.00;;;;;;;8.86;88.56;99969.06;4987241;28;20234;-61
2023/01/03 12:35:25;;;;;;;0.00;0.00;;;;;;;8.88;87.91;99971.56;4983819;28;20237;-61
2023/01/03 12:37:57;;;;;;;0.00;0.00;;;;;;;9.01;87.37;99969.75;4983947;28;20227;-59
2023/01/03 12:40:31;;;;;;;0.00;0.00;;;;;;;9.04;87.34;99965.28;4985821;28;20226;-61
2023/01/03 12:43:05;;;;;;;0.00;0.00;;;;;;;9.10;88.65;99967.47;4980660;28;20231;-61
2023/01/03 12:45:44;;;;;;;0.00;0.00;;;;;;;9.07;89.08;99954.66;4982249;28;20232;-61
2023/01/03 12:48:26;;;;;;;0.00;0.00;;;;;;;9.08;87.73;99964.94;4982854;28;20711;-61
2023/01/03 12:50:54;;;;;;;0.00;0.00;;;;;;;9.06;88.65;99968.59;4982309;28;20235;-61
2023/01/03 12:53:29;;;;;;;0.00;0.00;;;;;;;9.00;89.19;99957.69;4985392;28;20306;-61